If you wish to contribute or participate in the discussions about articles you are invited to join SKYbrary as a registered user

 Actions

Sendai Airport

From SKYbrary Wiki

RJSS
Airport
ICAO: RJSS – IATA: SDJ
Summary
Name Sendai Airport
Region Asia and Pacific
Territory Japan JP.gif
Location Natori, Sendai Metropolis
Serving Sendai
Elevation 1.829 m <br />6 ft1.829 m <br />
Coordinates 38° 8' 23.00" N, 140° 55' 1.00" E
Runways
Designator Length Width Surface ROPS
9/27 3000 m9,842.52 ft <br /> 46 m150.919 ft <br /> ASP yes/yes
12/30 1201 m3,940.289 ft <br /> 46 m150.919 ft <br /> ASP yes/yes


METAR
Observation RJSS 230500Z 33003KT 9999 -SHRA FEW010 SCT012 BKN030 18/16 Q1012
Station Sendai Airport
Date/Time 23 June 2021 05:00:00
Wind direction 330°
Wind speed 03 kts
Lowest cloud amount few clouds
Temperature 18°C
Dew point 16°C
Humidity 88%
QNH 1012 hPa
Weather condition light showers rain

Sendai Airport is an international airport located in the city of Natori, Miyagi, 13.6 km7.343 nm <br />13,600 m <br />44,619.423 ft <br /> south southeast of Sendai metropolis, Sendai, Japan.

Climatology

Humid Sub-tropical climate (Köppen climate classification Cfa)

Maps

Terrain

Loading map...

Airport Layout

Loading map...


Accidents & Serious Incidents at or in vicinity of RJSS

None on SKYbrary